Time;durP1;ratioP1;P1;durP2;ratioP2;P2;SDS_P1;SDS_P2;PMS_P1;PMS_P2;Temp;Humidity;BMP_temperature;BMP_pressure;BME280_temperature;BME280_humidity;BME280_pressure;Samples;Min_cycle;Max_cycle;Signal;HPM_P1;HPM_P2
2023/12/22 00:00:30;;;;;;;4.55;0.70;;;6.10;99.90;;;5.34;100.00;95948.19;5007548;28;20043;-37
2023/12/22 00:02:55;;;;;;;1.90;0.85;;;6.10;99.90;;;5.37;100.00;95955.09;5006337;28;20079;-37
2023/12/22 00:05:21;;;;;;;1.92;0.60;;;6.10;99.90;;;5.36;100.00;95946.38;5008575;28;20036;-37
2023/12/22 00:07:47;;;;;;;4.43;0.73;;;6.00;99.90;;;5.35;100.00;95952.53;5004415;28;20498;-36
2023/12/22 00:10:12;;;;;;;4.78;0.80;;;6.00;99.90;;;5.35;100.00;95944.69;5003292;28;20095;-36
2023/12/22 00:12:38;;;;;;;4.38;1.00;;;6.10;99.90;;;5.38;100.00;95952.38;5003727;28;20497;-36
2023/12/22 00:15:05;;;;;;;5.93;1.25;;;6.10;99.90;;;5.40;100.00;95941.88;4990550;28;20513;-36
2023/12/22 00:17:31;;;;;;;5.28;1.23;;;6.10;99.90;;;5.49;100.00;95942.38;5009258;28;20075;-36
2023/12/22 00:19:59;;;;;;;11.55;1.60;;;6.20;99.90;;;5.60;100.00;95955.00;5009302;28;20033;-36
2023/12/22 00:22:27;;;;;;;4.60;1.38;;;6.20;99.90;;;5.60;100.00;95935.84;5009994;28;20033;-36
2023/12/22 00:24:53;;;;;;;9.00;1.63;;;6.30;99.90;;;5.73;100.00;95921.34;5010706;28;20076;-36
2023/12/22 00:27:19;;;;;;;9.23;1.67;;;6.40;99.90;;;5.72;100.00;95927.50;5002610;28;23043;-36
2023/12/22 00:29:44;;;;;;;10.60;1.80;;;6.40;99.90;;;5.76;100.00;95934.31;5003828;28;20453;-36
2023/12/22 00:32:10;;;;;;;8.23;1.45;;;6.40;99.90;;;5.74;100.00;95938.72;5006568;28;20049;-35
2023/12/22 00:34:36;;;;;;;5.22;1.40;;;6.50;99.90;;;5.83;100.00;95955.81;5007585;28;20069;-35
2023/12/22 00:37:04;;;;;;;10.55;1.88;;;6.50;99.90;;;5.86;100.00;95979.25;5006239;28;20474;-36
2023/12/22 00:39:30;;;;;;;5.28;1.30;;;6.50;99.90;;;5.89;100.00;95998.28;5008881;28;20112;-36
2023/12/22 00:41:56;;;;;;;5.63;1.17;;;6.50;99.90;;;5.85;100.00;96022.88;5008184;28;20041;-36
2023/12/22 00:44:22;;;;;;;8.27;1.73;;;6.50;99.90;;;5.78;100.00;95995.25;5002307;28;20406;-35
2023/12/22 00:46:48;;;;;;;6.18;1.33;;;6.50;99.90;;;5.73;100.00;95992.81;4990885;28;20037;-35
2023/12/22 00:49:13;;;;;;;3.72;1.10;;;6.50;99.90;;;5.61;100.00;96019.47;5007321;28;20109;-36
2023/12/22 00:51:39;;;;;;;2.65;0.90;;;6.40;99.90;;;5.56;100.00;96016.16;5009513;28;21803;-36
2023/12/22 00:54:05;;;;;;;5.18;1.10;;;6.30;99.90;;;5.60;100.00;96009.06;5007328;28;20632;-35
2023/12/22 00:56:31;;;;;;;6.47;1.25;;;6.30;99.90;;;5.56;100.00;96021.41;5006858;28;20046;-35
2023/12/22 00:58:56;;;;;;;5.07;0.98;;;6.30;99.90;;;5.47;100.00;96012.19;5008983;28;20345;-35
2023/12/22 01:01:25;;;;;;;7.25;0.90;;;6.20;99.90;;;5.44;100.00;96009.66;5007958;28;20061;-36
2023/12/22 01:03:51;;;;;;;3.58;0.90;;;6.20;99.90;;;5.42;100.00;96011.50;5001655;28;20057;-36
2023/12/22 01:06:17;;;;;;;3.55;1.00;;;6.20;99.90;;;5.45;100.00;96007.91;5009258;28;20990;-36
2023/12/22 01:08:42;;;;;;;5.15;1.08;;;6.20;99.90;;;5.41;100.00;95995.88;5007002;28;20037;-37
2023/12/22 01:11:08;;;;;;;6.40;1.20;;;6.20;99.90;;;5.40;100.00;96010.72;5012263;28;20041;-36
2023/12/22 01:13:34;;;;;;;6.20;1.42;;;6.20;99.90;;;5.40;100.00;96000.25;5009881;28;20379;-37
2023/12/22 01:15:59;;;;;;;6.45;1.27;;;6.10;99.90;;;5.37;100.00;95989.06;5009260;28;20026;-37
2023/12/22 01:18:28;;;;;;;5.28;1.20;;;6.10;99.90;;;5.48;100.00;95987.72;5006728;28;20292;-36
2023/12/22 01:20:54;;;;;;;4.75;1.10;;;6.10;99.90;;;5.44;100.00;95975.69;5005470;28;20572;-37
2023/12/22 01:23:20;;;;;;;3.20;1.25;;;6.20;99.90;;;5.49;100.00;95986.81;5008174;28;21135;-36
2023/12/22 01:25:45;;;;;;;3.83;1.10;;;6.10;99.90;;;5.46;100.00;95976.47;5005157;28;20029;-36
2023/12/22 01:28:12;;;;;;;6.78;1.40;;;6.20;99.90;;;5.41;100.00;95991.47;5009995;28;20043;-37
2023/12/22 01:30:37;;;;;;;4.90;1.08;;;6.10;99.90;;;5.38;100.00;95978.53;5006740;28;20037;-36
2023/12/22 01:33:03;;;;;;;6.68;1.35;;;6.10;99.90;;;5.43;100.00;95980.97;5004322;28;20052;-36
2023/12/22 01:35:29;;;;;;;5.80;1.20;;;6.10;99.90;;;5.32;100.00;95955.25;5007530;28;20084;-36
2023/12/22 01:37:56;;;;;;;5.80;0.75;;;6.10;99.90;;;5.48;100.00;95985.09;5011919;28;20037;-37
2023/12/22 01:40:22;;;;;;;8.15;1.25;;;6.10;99.90;;;5.52;100.00;95983.22;5008273;28;20115;-36
2023/12/22 01:42:48;;;;;;;3.00;0.70;;;6.10;99.90;;;5.44;100.00;95983.53;5013424;28;20043;-36
2023/12/22 01:45:13;;;;;;;4.88;0.80;;;6.10;99.90;;;5.22;100.00;95965.19;5012341;28;20034;-37
2023/12/22 01:47:39;;;;;;;5.18;0.80;;;6.10;99.90;;;5.44;100.00;96016.69;5016096;28;20025;-36
2023/12/22 01:50:06;;;;;;;2.38;0.80;;;6.10;99.90;;;5.54;100.00;96008.41;5010750;28;20037;-36
2023/12/22 01:52:31;;;;;;;4.63;0.90;;;6.20;99.90;;;5.45;100.00;96013.13;5012178;28;20037;-36
2023/12/22 01:54:57;;;;;;;6.68;0.80;;;6.20;99.90;;;5.45;100.00;96023.59;5010652;28;20087;-37
2023/12/22 01:57:23;;;;;;;4.43;0.73;;;6.10;99.90;;;5.45;100.00;95987.81;5015127;28;20034;-36
2023/12/22 01:59:49;;;;;;;3.35;0.75;;;6.20;99.90;;;5.29;100.00;95994.56;5013661;28;20029;-36
2023/12/22 02:02:16;;;;;;;6.10;0.75;;;6.10;99.90;;;5.40;100.00;96022.91;4993747;28;20489;-37
2023/12/22 02:04:42;;;;;;;5.80;0.65;;;6.20;99.90;;;5.41;100.00;96027.25;5010414;28;20029;-36
2023/12/22 02:07:10;;;;;;;4.47;0.75;;;6.10;99.90;;;5.42;100.00;96031.53;5009335;28;20044;-36
2023/12/22 02:09:37;;;;;;;1.92;0.60;;;6.10;99.90;;;5.50;100.00;96014.66;4995822;28;20049;-36
2023/12/22 02:12:03;;;;;;;2.78;0.65;;;6.20;99.90;;;5.50;100.00;96019.88;4996871;28;20368;-36
2023/12/22 02:14:28;;;;;;;1.73;0.60;;;6.20;99.90;;;5.39;100.00;96016.00;5012543;28;20030;-36
2023/12/22 02:17:32;;;;;;;1.27;0.63;;;6.10;99.90;;;5.35;100.00;96017.88;5017351;28;20042;-36
2023/12/22 02:19:58;;;;;;;1.63;0.50;;;6.10;99.90;;;5.37;100.00;96009.97;5017997;28;20041;-36
2023/12/22 02:22:25;;;;;;;2.70;0.70;;;6.10;99.90;;;5.33;100.00;96025.78;5015891;28;20029;-36
2023/12/22 02:24:51;;;;;;;2.38;0.50;;;6.10;99.90;;;5.33;100.00;96036.22;5011596;28;20034;-36
2023/12/22 02:27:45;;;;;;;4.53;0.70;;;6.10;99.90;;;5.44;100.00;96048.06;5008466;28;20053;-36
2023/12/22 02:30:56;;;;;;;4.38;0.80;;;6.10;99.90;;;5.54;100.00;96029.34;5007653;28;20445;-36
2023/12/22 02:33:23;;;;;;;2.75;0.68;;;6.20;99.90;;;5.61;100.00;96047.38;4995349;28;20080;-36
2023/12/22 02:35:51;;;;;;;6.72;0.70;;;6.30;99.90;;;5.66;100.00;96042.84;5009341;28;20030;-36
2023/12/22 02:38:17;;;;;;;3.63;1.10;;;6.40;99.90;;;5.52;100.00;96020.66;5012360;28;20064;-36
2023/12/22 02:40:44;;;;;;;6.05;0.75;;;6.40;99.90;;;5.63;100.00;96027.25;5012940;28;20553;-36
2023/12/22 02:43:10;;;;;;;4.88;0.80;;;6.30;99.90;;;5.66;100.00;96061.97;5011647;28;20188;-36
2023/12/22 02:45:36;;;;;;;5.45;0.90;;;6.40;99.90;;;5.68;100.00;96034.00;4993068;28;20038;-36
2023/12/22 02:48:02;;;;;;;5.55;0.90;;;6.40;99.90;;;5.67;100.00;96039.28;5007857;28;20048;-36
2023/12/22 02:50:28;;;;;;;3.45;0.73;;;6.40;99.90;;;5.60;100.00;96001.22;5007021;28;20541;-36
2023/12/22 02:52:54;;;;;;;3.22;0.70;;;6.30;99.90;;;5.64;100.00;96014.13;5006097;28;20064;-36
2023/12/22 02:55:19;;;;;;;4.53;1.20;;;6.30;99.90;;;5.74;100.00;96030.28;5011340;28;20061;-36
2023/12/22 02:57:45;;;;;;;5.82;1.05;;;6.40;99.90;;;5.83;100.00;96026.47;5010366;28;20429;-36
2023/12/22 03:00:11;;;;;;;4.70;0.95;;;6.50;99.90;;;5.79;100.00;96022.28;5013661;28;20660;-36
2023/12/22 03:02:37;;;;;;;6.05;0.73;;;6.50;99.90;;;5.82;100.00;96037.84;5013043;28;20068;-36
2023/12/22 03:05:04;;;;;;;4.22;1.10;;;6.50;99.90;;;5.81;100.00;96009.97;5009922;28;20036;-36
2023/12/22 03:07:30;;;;;;;6.45;1.17;;;6.50;99.90;;;5.85;100.00;95999.34;5011481;28;20038;-36
2023/12/22 03:09:55;;;;;;;5.72;0.80;;;6.50;99.90;;;5.89;100.00;96008.75;5006349;28;20491;-36
2023/12/22 03:12:21;;;;;;;3.30;0.60;;;6.60;99.90;;;5.94;100.00;96000.72;5013703;28;20037;-36
2023/12/22 03:14:47;;;;;;;5.95;0.95;;;6.60;99.90;;;6.02;100.00;96003.91;5015238;28;20029;-36
2023/12/22 03:17:13;;;;;;;5.63;1.15;;;6.70;99.90;;;5.99;100.00;96008.41;5013487;28;20051;-36
2023/12/22 03:19:39;;;;;;;3.65;0.93;;;6.70;99.90;;;6.02;100.00;96019.59;5009805;28;20075;-36
2023/12/22 03:22:05;;;;;;;1.85;0.60;;;6.70;99.90;;;6.08;100.00;96023.72;5008229;28;20052;-35
2023/12/22 03:24:30;;;;;;;4.03;0.73;;;6.80;99.90;;;6.20;100.00;96012.75;5014944;28;21418;-35
2023/12/22 03:26:56;;;;;;;1.95;0.77;;;6.80;99.90;;;6.24;100.00;96013.47;5014073;28;20026;-36
2023/12/22 03:29:22;;;;;;;2.05;0.60;;;6.90;99.90;;;6.20;100.00;96025.84;5012936;28;20091;-36
2023/12/22 03:31:47;;;;;;;3.50;0.70;;;6.90;99.90;;;6.23;100.00;96017.03;5011893;28;20084;-36
2023/12/22 03:34:14;;;;;;;7.38;1.23;;;6.90;99.90;;;6.20;100.00;96044.16;5011006;28;20026;-36
2023/12/22 03:36:39;;;;;;;2.22;0.70;;;6.90;99.90;;;6.21;100.00;96039.78;5010257;28;20387;-36
2023/12/22 03:39:05;;;;;;;6.88;0.80;;;6.90;99.90;;;6.17;100.00;96041.66;4994843;28;20029;-36
2023/12/22 03:41:31;;;;;;;4.93;0.70;;;6.90;99.90;;;6.17;100.00;96032.97;5010585;28;20030;-36
2023/12/22 03:43:58;;;;;;;7.35;1.58;;;6.90;99.90;;;6.12;100.00;96046.25;5010572;28;20036;-36
2023/12/22 03:46:24;;;;;;;7.28;1.00;;;6.90;99.90;;;6.15;100.00;96040.03;5009136;28;20250;-36
2023/12/22 03:48:53;;;;;;;4.25;0.80;;;6.90;99.90;;;6.11;100.00;96055.00;5011558;28;20103;-35
2023/12/22 03:51:18;;;;;;;5.43;1.10;;;6.90;99.90;;;6.17;100.00;96073.06;5007656;28;20486;-35
2023/12/22 03:53:44;;;;;;;4.28;0.85;;;6.90;99.90;;;6.20;100.00;96059.88;4986636;28;20025;-36
2023/12/22 03:56:10;;;;;;;3.92;0.90;;;6.90;99.90;;;6.17;100.00;96061.75;5002821;28;20541;-36
2023/12/22 03:58:36;;;;;;;3.75;0.73;;;6.90;99.90;;;6.10;100.00;96064.66;5008221;28;20116;-37
2023/12/22 04:01:02;;;;;;;3.38;0.98;;;6.90;99.90;;;5.82;100.00;96033.47;5014145;28;20203;-35
2023/12/22 04:03:28;;;;;;;4.80;1.08;;;6.60;99.90;;;5.67;100.00;96044.53;5010338;28;20611;-35
2023/12/22 04:05:54;;;;;;;4.38;0.90;;;6.40;99.90;;;5.49;100.00;96043.47;5003772;28;20047;-35
2023/12/22 04:08:22;;;;;;;4.00;1.08;;;6.20;99.90;;;5.35;100.00;96067.53;5005882;28;20486;-35
2023/12/22 04:10:48;;;;;;;5.20;0.90;;;6.10;99.90;;;5.27;100.00;96054.75;5007698;28;20038;-35
2023/12/22 04:13:14;;;;;;;8.73;1.10;;;6.00;99.90;;;5.25;100.00;96058.34;5007341;28;20037;-35
2023/12/22 04:15:40;;;;;;;4.70;1.00;;;6.00;99.90;;;5.23;100.00;96057.53;5006343;28;20053;-35
2023/12/22 04:18:06;;;;;;;6.72;1.10;;;5.90;99.90;;;5.13;100.00;96052.66;5004144;28;20083;-35
2023/12/22 04:20:32;;;;;;;6.93;1.00;;;5.90;99.90;;;5.12;100.00;96052.72;5007307;28;20069;-35
2023/12/22 04:22:58;;;;;;;3.42;1.02;;;5.80;99.90;;;5.03;100.00;96034.75;5011299;28;20025;-35
2023/12/22 04:25:25;;;;;;;10.63;1.05;;;5.80;99.90;;;4.91;100.00;96039.50;5007660;28;20052;-35
2023/12/22 04:27:51;;;;;;;6.32;1.20;;;5.70;99.90;;;5.03;100.00;96051.28;5008427;28;20034;-35
2023/12/22 04:30:16;;;;;;;6.22;1.08;;;5.70;99.90;;;5.06;100.00;96029.41;5006490;28;20071;-35
2023/12/22 04:32:42;;;;;;;5.15;1.42;;;5.70;99.90;;;5.06;100.00;96035.50;5009040;28;20547;-35
2023/12/22 04:35:08;;;;;;;3.10;0.98;;;5.80;99.90;;;5.10;100.00;96034.47;5009166;28;20042;-35
2023/12/22 04:37:33;;;;;;;5.97;0.90;;;5.80;99.90;;;5.08;100.00;96043.25;5009624;28;20400;-35
2023/12/22 04:39:59;;;;;;;4.65;1.02;;;5.80;99.90;;;5.19;100.00;96053.31;5003959;28;20454;-35
2023/12/22 04:42:25;;;;;;;6.25;1.40;;;5.80;99.90;;;5.26;100.00;96039.16;5007575;28;20041;-35
2023/12/22 04:44:51;;;;;;;10.32;1.10;;;5.80;99.90;;;5.38;100.00;96032.59;5012039;28;20108;-35
2023/12/22 04:47:17;;;;;;;5.97;1.08;;;6.00;99.90;;;5.29;100.00;96055.56;5009617;28;20048;-35
2023/12/22 04:49:44;;;;;;;7.20;0.65;;;5.90;99.90;;;5.33;100.00;96064.13;5012393;28;20029;-35
2023/12/22 04:52:13;;;;;;;4.93;0.73;;;5.90;99.90;;;5.36;100.00;96074.47;5013329;28;20042;-35
2023/12/22 04:54:39;;;;;;;7.15;0.65;;;6.00;99.90;;;5.42;100.00;96066.41;5011971;28;20136;-35
2023/12/22 04:57:05;;;;;;;2.10;0.88;;;6.00;99.90;;;5.28;100.00;96077.38;5012307;28;20040;-35
2023/12/22 04:59:30;;;;;;;7.13;0.85;;;5.90;99.90;;;5.31;100.00;96065.94;5005208;28;20268;-35
2023/12/22 05:01:56;;;;;;;1.92;0.70;;;5.90;99.90;;;5.32;100.00;96075.50;5012518;28;20033;-35
2023/12/22 05:04:22;;;;;;;3.72;0.63;;;5.90;99.90;;;5.42;100.00;96089.06;5014627;28;20048;-35
2023/12/22 05:06:48;;;;;;;1.77;0.57;;;5.90;99.90;;;5.42;100.00;96076.88;5013328;28;20029;-35
2023/12/22 05:09:15;;;;;;;5.70;1.00;;;6.00;99.90;;;5.65;100.00;96085.56;5011482;28;20045;-35
2023/12/22 05:11:41;;;;;;;4.55;1.17;;;6.20;99.90;;;5.62;100.00;96141.47;5008734;28;20037;-36
2023/12/22 05:14:06;;;;;;;4.40;1.13;;;6.20;99.90;;;5.64;100.00;96094.34;5009204;28;20496;-35
2023/12/22 05:16:32;;;;;;;5.32;1.13;;;6.30;99.90;;;5.78;100.00;96088.56;5011832;28;20345;-35
2023/12/22 05:18:58;;;;;;;5.60;1.00;;;6.40;99.90;;;5.77;100.00;96111.28;5009017;28;20033;-35
2023/12/22 05:21:24;;;;;;;12.02;1.80;;;6.40;99.90;;;5.71;100.00;96099.28;5010839;28;20037;-35
2023/12/22 05:23:50;;;;;;;6.45;1.35;;;6.40;99.90;;;5.61;100.00;96089.22;5011532;28;20084;-35
2023/12/22 05:26:20;;;;;;;10.77;1.67;;;6.40;99.90;;;5.89;100.00;96107.34;5008789;28;20029;-35
2023/12/22 05:28:49;;;;;;;14.18;1.85;;;6.50;99.90;;;5.91;100.00;96113.34;5009792;28;20036;-35
2023/12/22 05:31:16;;;;;;;7.75;1.50;;;6.60;99.90;;;5.95;100.00;96114.94;5008912;28;20033;-35
2023/12/22 05:33:41;;;;;;;5.78;1.42;;;6.60;99.90;;;5.96;100.00;96123.66;5015110;28;20452;-35
2023/12/22 05:36:08;;;;;;;11.65;1.60;;;6.60;99.90;;;5.83;100.00;96102.31;5012186;28;20107;-35
2023/12/22 05:38:40;;;;;;;7.63;1.40;;;6.60;99.90;;;5.75;100.00;96128.78;5008993;28;20044;-35
2023/12/22 05:41:06;;;;;;;9.65;1.50;;;6.50;99.90;;;5.69;100.00;96132.50;5009001;28;20114;-35
2023/12/22 05:43:35;;;;;;;6.63;1.38;;;6.40;99.90;;;5.62;100.00;96117.94;5012171;28;20041;-35
2023/12/22 05:46:01;;;;;;;11.73;1.50;;;6.30;99.90;;;5.62;100.00;96132.78;5009388;28;20068;-36
2023/12/22 05:48:30;;;;;;;9.02;1.80;;;6.30;99.90;;;5.61;100.00;96136.31;5013693;28;20025;-35
2023/12/22 05:50:59;;;;;;;12.82;1.85;;;6.30;99.90;;;5.62;100.00;96123.19;5011072;28;20086;-35
2023/12/22 05:53:25;;;;;;;12.20;1.50;;;6.30;99.90;;;5.67;100.00;96136.06;5007981;28;20097;-36
2023/12/22 05:55:51;;;;;;;9.55;1.50;;;6.40;99.90;;;5.75;100.00;96136.63;5001221;28;20478;-36
2023/12/22 05:58:16;;;;;;;6.88;1.45;;;6.40;99.90;;;5.95;100.00;96124.56;5012865;28;20029;-35
2023/12/22 06:00:42;;;;;;;13.23;1.75;;;6.60;99.90;;;5.92;100.00;96142.09;5010877;28;20046;-35
2023/12/22 06:03:08;;;;;;;5.72;1.20;;;6.60;99.90;;;5.91;100.00;96129.91;5014724;28;20037;-35
2023/12/22 06:05:34;;;;;;;8.68;1.35;;;6.60;99.90;;;6.04;100.00;96135.53;5012524;28;20025;-35
2023/12/22 06:07:59;;;;;;;4.38;1.17;;;6.70;99.90;;;6.14;100.00;96148.25;5009371;28;20493;-36
2023/12/22 06:10:25;;;;;;;8.13;1.70;;;6.80;99.90;;;6.29;100.00;96152.91;5013579;28;20033;-36
2023/12/22 06:12:51;;;;;;;4.50;1.45;;;6.90;99.90;;;6.30;100.00;96163.31;5012678;28;20052;-36
2023/12/22 06:15:16;;;;;;;11.50;1.30;;;7.00;99.90;;;6.31;100.00;96177.25;5009722;28;20033;-34
2023/12/22 06:17:42;;;;;;;7.38;1.33;;;7.00;99.90;;;6.29;100.00;96151.13;5008496;28;20873;-36
2023/12/22 06:20:09;;;;;;;7.22;1.10;;;7.00;99.90;;;6.24;100.00;96152.22;5011782;28;20057;-36
2023/12/22 06:22:34;;;;;;;12.18;1.50;;;7.00;99.90;;;6.25;100.00;96154.78;5009553;28;20489;-36
2023/12/22 06:25:00;;;;;;;7.57;1.70;;;7.00;99.90;;;6.18;100.00;96163.78;5006322;28;20034;-35
2023/12/22 06:27:26;;;;;;;10.77;1.50;;;7.00;99.90;;;6.23;100.00;96193.28;5012088;28;20592;-35
2023/12/22 06:29:52;;;;;;;10.07;1.73;;;6.90;99.90;;;6.36;100.00;96190.19;5008082;28;20037;-35
2023/12/22 06:32:17;;;;;;;7.03;1.30;;;7.00;99.90;;;6.36;100.00;96191.03;5011198;28;20033;-35
2023/12/22 06:34:43;;;;;;;7.65;1.42;;;7.00;99.90;;;6.28;100.00;96211.41;5011475;28;20512;-36
2023/12/22 06:37:10;;;;;;;6.00;1.30;;;7.00;99.90;;;6.22;100.00;96220.34;5013349;28;20045;-36
2023/12/22 06:39:36;;;;;;;6.55;1.67;;;6.90;99.90;;;6.17;100.00;96209.19;5009251;28;20034;-36
2023/12/22 06:42:03;;;;;;;7.50;1.30;;;6.90;99.90;;;6.27;100.00;96222.81;5018657;28;20036;-36
2023/12/22 06:44:31;;;;;;;10.85;1.50;;;7.00;99.90;;;6.36;100.00;96221.59;5016446;28;20438;-36
2023/12/22 06:46:56;;;;;;;7.20;1.45;;;7.00;99.90;;;6.30;100.00;96210.44;4999929;28;20065;-36
2023/12/22 06:49:22;;;;;;;6.03;1.20;;;7.00;99.90;;;6.34;100.00;96212.94;5012399;28;20684;-35
2023/12/22 06:51:48;;;;;;;4.68;1.02;;;7.00;99.90;;;6.37;100.00;96223.28;5006880;28;20045;-35
2023/12/22 06:54:14;;;;;;;8.90;1.63;;;7.10;99.90;;;6.38;100.00;96225.00;5005363;28;20636;-36
2023/12/22 06:56:39;;;;;;;5.60;1.08;;;7.10;99.90;;;6.43;100.00;96223.06;5014425;28;20510;-35
2023/12/22 06:59:06;;;;;;;6.10;1.27;;;7.10;99.90;;;6.45;100.00;96231.72;5013896;28;20263;-35
2023/12/22 07:01:34;;;;;;;8.02;1.35;;;7.10;99.90;;;6.42;100.00;96235.28;5004495;28;20044;-35
2023/12/22 07:04:01;;;;;;;7.43;1.50;;;7.10;99.90;;;6.46;100.00;96243.88;5011002;28;20025;-35
2023/12/22 07:06:30;;;;;;;5.20;1.30;;;7.20;99.90;;;6.45;100.00;96252.66;5009755;28;20129;-35
2023/12/22 07:09:19;;;;;;;8.10;1.48;;;7.20;99.90;;;6.50;100.00;96254.19;5007292;28;20030;-35
2023/12/22 07:11:50;;;;;;;7.78;1.30;;;7.20;99.90;;;6.42;100.00;96237.91;5008537;28;20532;-35
2023/12/22 07:14:16;;;;;;;9.45;1.08;;;7.20;99.90;;;6.47;100.00;96261.31;5005145;28;20041;-35
2023/12/22 07:16:42;;;;;;;6.65;1.20;;;7.20;99.90;;;6.45;100.00;96268.38;5006708;28;20045;-36
2023/12/22 07:19:09;;;;;;;5.22;1.23;;;7.20;99.90;;;6.49;100.00;96288.28;5010610;28;20455;-35
2023/12/22 07:21:35;;;;;;;7.15;1.10;;;7.20;99.90;;;6.39;100.00;96256.38;5006207;28;20465;-35
2023/12/22 07:24:00;;;;;;;7.43;1.65;;;7.20;99.90;;;6.36;100.00;96271.34;5007887;28;20145;-35
2023/12/22 07:26:27;;;;;;;8.38;1.30;;;7.10;99.90;;;6.31;100.00;96264.50;5006639;28;20303;-35
2023/12/22 07:28:53;;;;;;;8.52;1.48;;;7.10;99.90;;;6.34;100.00;96274.03;5008057;28;20033;-35
2023/12/22 07:31:19;;;;;;;5.88;0.95;;;7.00;99.90;;;6.33;100.00;96281.94;5010191;28;20048;-35
2023/12/22 07:33:45;;;;;;;5.32;1.40;;;7.10;99.90;;;6.31;100.00;96293.31;5011741;28;20205;-35
2023/12/22 07:36:11;;;;;;;5.90;1.30;;;7.00;99.90;;;6.35;100.00;96285.34;5010954;28;20727;-35
2023/12/22 07:38:39;;;;;;;6.53;1.25;;;7.00;99.90;;;6.33;100.00;96292.41;5001541;28;20136;-35
2023/12/22 07:41:05;;;;;;;6.85;1.27;;;7.00;99.90;;;6.33;100.00;96279.31;5003202;28;20068;-35
2023/12/22 07:43:30;;;;;;;4.30;1.45;;;7.00;99.90;;;6.38;100.00;96293.94;5007829;28;20474;-35
2023/12/22 07:45:56;;;;;;;4.78;1.20;;;7.10;99.90;;;6.36;100.00;96280.06;5009415;28;20060;-35
2023/12/22 07:48:22;;;;;;;7.95;1.30;;;7.10;99.90;;;6.34;100.00;96281.03;5009108;28;20040;-35
2023/12/22 07:50:47;;;;;;;6.35;0.95;;;7.10;99.90;;;6.36;100.00;96285.28;5009382;28;20041;-35
2023/12/22 07:53:13;;;;;;;4.40;0.98;;;7.10;99.90;;;6.40;100.00;96289.47;5006861;28;20851;-35
2023/12/22 07:55:39;;;;;;;7.50;1.00;;;7.10;99.90;;;6.33;100.00;96288.00;5006318;28;20053;-35
2023/12/22 07:58:05;;;;;;;6.40;1.30;;;7.00;99.90;;;6.32;100.00;96283.69;5009879;28;20045;-35
2023/12/22 08:00:31;;;;;;;5.68;0.82;;;7.00;99.90;;;6.29;100.00;96287.28;5001202;28;20029;-35
2023/12/22 08:02:57;;;;;;;4.18;0.90;;;7.00;99.90;;;6.31;100.00;96284.59;5010240;28;20030;-35
2023/12/22 08:05:23;;;;;;;3.50;0.73;;;7.00;99.90;;;6.17;100.00;96289.50;5009638;28;20238;-35
2023/12/22 08:07:49;;;;;;;6.35;1.17;;;6.90;99.90;;;6.11;100.00;96275.72;5009038;28;20418;-36
2023/12/22 08:10:15;;;;;;;4.13;1.00;;;6.80;99.90;;;6.03;100.00;96276.91;5007892;28;20353;-36
2023/12/22 08:12:41;;;;;;;7.82;1.10;;;6.70;99.90;;;5.95;100.00;96289.41;5005174;28;20033;-36
2023/12/22 08:15:10;;;;;;;7.55;1.20;;;6.70;99.90;;;5.91;100.00;96289.53;5021704;28;20034;-36
2023/12/22 08:17:37;;;;;;;5.70;1.30;;;6.60;99.90;;;5.81;100.00;96289.91;5010406;28;20386;-35
2023/12/22 08:20:04;;;;;;;3.33;0.93;;;6.50;99.90;;;5.71;100.00;96302.47;5010106;28;20061;-35
2023/12/22 08:22:29;;;;;;;5.10;0.98;;;6.50;99.90;;;5.64;100.00;96300.97;5008810;28;20901;-34
2023/12/22 08:24:55;;;;;;;7.63;1.08;;;6.40;99.90;;;5.60;100.00;96294.13;5011281;28;20162;-34
2023/12/22 08:27:21;;;;;;;4.07;0.88;;;6.30;99.90;;;5.56;100.00;96298.59;5011022;28;20041;-35
2023/12/22 08:29:47;;;;;;;8.13;1.38;;;6.20;99.90;;;5.52;100.00;96282.16;5011972;28;20057;-35
2023/12/22 08:32:12;;;;;;;10.35;1.40;;;6.20;99.90;;;5.53;100.00;96276.03;5004767;28;20033;-36
2023/12/22 08:34:38;;;;;;;7.75;1.40;;;6.20;99.90;;;5.47;100.00;96283.25;5008184;28;22361;-36
2023/12/22 08:37:04;;;;;;;12.13;1.92;;;6.20;99.90;;;5.42;100.00;96262.50;5008520;28;20505;-36
2023/12/22 08:39:29;;;;;;;13.65;1.90;;;6.10;99.90;;;5.48;100.00;96283.19;5008307;28;20051;-35
2023/12/22 08:41:55;;;;;;;10.00;1.52;;;6.20;99.90;;;5.49;100.00;96279.69;5012552;28;20505;-35
2023/12/22 08:44:21;;;;;;;9.68;1.85;;;6.20;99.90;;;5.58;100.00;96280.25;5007365;28;20080;-35
2023/12/22 08:46:46;;;;;;;10.05;1.80;;;6.20;99.90;;;5.61;100.00;96285.38;5007261;28;20034;-35
2023/12/22 08:49:12;;;;;;;6.75;1.70;;;6.20;99.90;;;5.66;100.00;96289.53;5009694;28;20038;-35
2023/12/22 08:51:38;;;;;;;8.85;1.52;;;6.30;99.90;;;5.69;100.00;96273.75;5008450;28;20041;-35
2023/12/22 08:54:04;;;;;;;9.60;1.70;;;6.30;99.90;;;5.64;100.00;96254.75;5009690;28;20033;-35
2023/12/22 08:56:30;;;;;;;8.52;1.70;;;6.30;99.90;;;5.78;100.00;96274.31;5010896;28;20271;-35
2023/12/22 08:58:58;;;;;;;10.13;1.75;;;6.40;99.90;;;5.68;100.00;96255.50;5011011;28;20029;-35
2023/12/22 09:01:25;;;;;;;12.75;2.28;;;6.40;99.90;;;5.82;100.00;96284.63;5005637;28;20438;-36
2023/12/22 09:03:52;;;;;;;9.68;1.65;;;6.50;99.90;;;5.89;100.00;96286.09;5005958;28;20504;-36
2023/12/22 09:06:20;;;;;;;7.80;1.75;;;6.50;99.90;;;5.88;100.00;96297.47;5006834;28;20042;-36
2023/12/22 09:08:46;;;;;;;18.73;2.03;;;6.60;99.90;;;5.93;100.00;96297.31;5009330;28;20093;-36
2023/12/22 09:11:15;;;;;;;11.50;2.03;;;6.60;99.90;;;5.95;100.00;96305.13;5007859;28;20119;-36
2023/12/22 09:13:41;;;;;;;9.35;1.52;;;6.60;99.90;;;6.00;100.00;96293.59;5007160;28;20500;-36
2023/12/22 09:16:08;;;;;;;10.18;2.45;;;6.70;99.90;;;6.05;100.00;96301.28;5010017;28;20060;-36
2023/12/22 09:18:35;;;;;;;14.07;2.00;;;6.70;99.90;;;6.10;100.00;96294.97;5008089;28;20043;-36
2023/12/22 09:21:01;;;;;;;10.00;1.83;;;6.80;99.90;;;6.09;100.00;96295.88;5010646;28;20324;-36
2023/12/22 09:23:27;;;;;;;13.07;2.20;;;6.90;99.90;;;6.17;100.00;96315.69;5003656;28;20063;-36
2023/12/22 09:25:53;;;;;;;15.27;2.15;;;6.90;99.90;;;6.21;100.00;96299.81;5010287;28;20022;-36
2023/12/22 09:28:19;;;;;;;12.50;2.28;;;6.90;99.90;;;6.27;100.00;96312.66;4995306;28;20735;-36
2023/12/22 09:30:44;;;;;;;10.27;2.05;;;7.00;99.90;;;6.30;100.00;96311.72;5010283;28;20060;-36
2023/12/22 09:33:10;;;;;;;11.52;2.00;;;7.00;99.90;;;6.34;100.00;96296.75;4999157;28;20037;-36
2023/12/22 09:35:36;;;;;;;15.60;2.08;;;7.10;99.90;;;6.35;100.00;96288.81;5008924;28;20469;-36
2023/12/22 09:38:03;;;;;;;11.45;2.00;;;7.10;99.90;;;6.41;100.00;96303.47;5010657;28;20044;-36
2023/12/22 09:40:30;;;;;;;7.20;1.65;;;7.20;99.90;;;6.47;100.00;96332.03;5009293;28;20080;-36
2023/12/22 09:42:58;;;;;;;14.00;1.92;;;7.20;99.90;;;6.52;100.00;96342.34;5011387;28;20025;-36
2023/12/22 09:45:24;;;;;;;12.63;2.47;;;7.30;99.90;;;6.61;100.00;96337.59;5013846;28;20057;-36
2023/12/22 09:47:51;;;;;;;12.88;2.60;;;7.30;99.90;;;6.71;100.00;96337.22;5012983;28;20037;-36
2023/12/22 09:50:17;;;;;;;15.10;3.30;;;7.40;99.90;;;6.73;100.00;96338.91;5012556;28;20385;-36
2023/12/22 09:52:46;;;;;;;9.77;2.33;;;7.40;99.90;;;6.66;100.00;96334.81;5009046;28;20041;-36
2023/12/22 09:55:13;;;;;;;15.95;2.20;;;7.40;99.90;;;6.68;100.00;96333.81;5010486;28;20025;-36
2023/12/22 09:57:39;;;;;;;10.30;1.88;;;7.50;99.90;;;6.76;100.00;96332.66;5007802;28;20729;-36
2023/12/22 10:00:10;;;;;;;16.98;2.75;;;7.50;99.90;;;6.79;100.00;96346.50;5012875;28;20045;-36
2023/12/22 10:02:39;;;;;;;9.95;1.90;;;7.50;99.90;;;6.79;100.00;96322.94;5010395;28;20056;-35
2023/12/22 10:05:05;;;;;;;12.63;2.17;;;7.60;99.90;;;6.87;100.00;96333.09;5014278;28;20080;-36
2023/12/22 10:07:33;;;;;;;16.88;2.50;;;7.60;99.90;;;6.94;100.00;96339.81;5011946;28;20029;-36
2023/12/22 10:10:00;;;;;;;9.10;1.70;;;7.60;99.90;;;6.94;100.00;96345.03;5012513;28;20025;-36
2023/12/22 10:12:27;;;;;;;12.63;2.10;;;7.70;99.90;;;6.90;100.00;96306.78;5010633;28;20142;-36
2023/12/22 10:14:54;;;;;;;10.23;2.30;;;7.70;99.90;;;6.95;100.00;96317.09;5004660;28;20072;-36
2023/12/22 10:17:20;;;;;;;11.00;2.17;;;7.70;99.90;;;6.95;100.00;96304.84;4996148;28;20506;-36
2023/12/22 10:19:45;;;;;;;12.90;2.45;;;7.70;99.90;;;7.01;100.00;96304.56;5011430;28;20029;-36
2023/12/22 10:22:11;;;;;;;14.77;2.22;;;7.70;99.90;;;7.08;100.00;96286.84;5010885;28;20033;-36